Time;durP1;ratioP1;P1;durP2;ratioP2;P2;SDS_P1;SDS_P2;PMS_P1;PMS_P2;Temp;Humidity;BMP_temperature;BMP_pressure;BME280_temperature;BME280_humidity;BME280_pressure;Samples;Min_cycle;Max_cycle;Signal;HPM_P1;HPM_P2
2023/03/05 00:04:28;;;;;;;0.98;0.32;;;;;;;19.62;28.78;102209.69;16116635;19;131137;-43
2023/03/05 00:09:50;;;;;;;1.60;0.38;;;;;;;19.58;28.93;102216.75;16113888;19;131143;-45
2023/03/05 00:15:12;;;;;;;2.63;0.60;;;;;;;19.55;28.70;102208.91;16119583;19;129923;-42
2023/03/05 00:20:34;;;;;;;1.63;0.40;;;;;;;19.52;29.14;102207.38;16116386;19;129709;-43
2023/03/05 00:26:00;;;;;;;1.55;0.30;;;;;;;19.47;28.81;102198.91;16113350;19;130157;-45
2023/03/05 00:31:24;;;;;;;;;;;;;;;19.41;28.83;102193.38;16110607;19;130422;-45
2023/03/05 00:36:51;;;;;;;1.25;0.35;;;;;;;19.42;28.78;102192.31;16111107;19;129734;-43
2023/03/05 00:42:13;;;;;;;1.30;0.38;;;;;;;19.35;29.24;102187.63;16111632;19;130498;-44
2023/03/05 00:47:34;;;;;;;1.27;0.30;;;;;;;19.34;28.92;102179.53;16108486;19;132418;-43
2023/03/05 00:52:56;;;;;;;0.60;0.30;;;;;;;19.31;29.11;102172.50;16112471;19;129923;-43
2023/03/05 00:58:18;;;;;;;0.80;0.40;;;;;;;19.28;28.85;102163.75;16108977;19;131531;-42
2023/03/05 01:03:40;;;;;;;2.28;0.65;;;;;;;19.24;29.11;102154.19;16106653;19;131817;-47
2023/03/05 01:09:02;;;;;;;1.95;0.32;;;;;;;19.22;28.91;102148.84;16112563;19;129251;-47
2023/03/05 01:14:26;;;;;;;2.90;0.30;;;;;;;19.20;28.97;102150.97;16112223;19;130363;-43
2023/03/05 01:19:48;;;;;;;1.15;0.20;;;;;;;19.19;29.42;102154.81;16118033;19;130076;-50
2023/03/05 01:25:13;;;;;;;0.35;0.25;;;;;;;19.16;29.50;102138.59;16125918;19;130944;-43
2023/03/05 01:30:35;;;;;;;0.65;0.30;;;;;;;19.13;29.51;102133.50;16127809;19;129916;-44
2023/03/05 01:35:57;;;;;;;0.70;0.30;;;;;;;19.10;29.32;102125.59;16124488;19;131215;-44
2023/03/05 01:41:19;;;;;;;0.88;0.20;;;;;;;19.07;29.28;102116.69;16123876;19;129643;-44
2023/03/05 01:46:41;;;;;;;1.38;0.40;;;;;;;19.04;29.46;102100.47;16121368;19;129476;-43
2023/03/05 01:52:10;;;;;;;0.63;0.20;;;;;;;19.03;29.61;102096.00;16123833;19;132040;-46
2023/03/05 01:57:37;;;;;;;1.27;0.40;;;;;;;19.01;29.47;102098.13;16125999;19;129737;-44
2023/03/05 02:03:04;;;;;;;0.30;0.10;;;;;;;18.99;29.30;102080.84;16124696;19;129404;-43
2023/03/05 02:08:26;;;;;;;0.75;0.20;;;;;;;18.97;29.57;102077.44;16118247;19;130008;-43
2023/03/05 02:13:48;;;;;;;1.08;0.30;;;;;;;18.95;29.52;102070.44;16129554;19;130212;-44
2023/03/05 02:19:12;;;;;;;1.80;0.30;;;;;;;18.94;29.78;102074.28;16128913;19;129284;-43
2023/03/05 02:24:36;;;;;;;0.77;0.32;;;;;;;18.91;29.34;102058.94;16123887;19;129861;-44
2023/03/05 02:29:58;;;;;;;0.43;0.15;;;;;;;18.88;29.60;102048.28;16120669;19;129837;-46
2023/03/05 02:35:20;;;;;;;1.30;0.30;;;;;;;18.86;29.63;102051.28;16119252;19;130433;-43
2023/03/05 02:40:42;;;;;;;0.68;0.25;;;;;;;18.85;29.57;102051.47;16120317;19;130899;-43
2023/03/05 02:46:05;;;;;;;0.57;0.20;;;;;;;18.82;29.61;102046.41;16119280;19;131418;-45
2023/03/05 02:51:27;;;;;;;0.82;0.20;;;;;;;18.80;29.56;102037.44;16119803;19;131320;-44
2023/03/05 02:56:49;;;;;;;0.30;0.10;;;;;;;18.79;29.50;102030.19;16121177;19;131040;-46
2023/03/05 03:02:11;;;;;;;1.23;0.30;;;;;;;18.75;30.04;102027.84;16117109;19;130265;-44
2023/03/05 03:07:34;;;;;;;0.30;0.10;;;;;;;18.73;29.75;102018.91;16120409;19;129696;-42
2023/03/05 03:12:56;;;;;;;1.52;0.20;;;;;;;18.72;30.02;102011.66;16121979;19;129298;-44
2023/03/05 03:18:18;;;;;;;0.88;0.20;;;;;;;18.71;30.09;102007.19;16122239;19;130169;-48
2023/03/05 03:23:40;;;;;;;0.73;0.35;;;;;;;18.69;30.11;102003.81;16113043;19;130742;-43
2023/03/05 03:29:02;;;;;;;2.20;0.20;;;;;;;18.68;29.99;102004.00;16115511;19;131036;-44
2023/03/05 03:34:24;;;;;;;0.63;0.20;;;;;;;18.66;30.15;101995.94;16115769;19;129543;-44
2023/03/05 03:39:46;;;;;;;0.60;0.28;;;;;;;18.64;30.22;101989.75;16115157;19;129631;-46
2023/03/05 03:45:08;;;;;;;2.10;0.68;;;;;;;18.63;30.21;101982.50;16115321;19;130218;-45
2023/03/05 03:50:30;;;;;;;0.95;0.40;;;;;;;18.61;30.06;101977.19;16111523;19;129998;-44
2023/03/05 03:55:57;;;;;;;0.65;0.35;;;;;;;18.59;29.95;101970.16;16116619;19;130141;-43
2023/03/05 04:01:20;;;;;;;0.43;0.20;;;;;;;18.58;30.19;101960.16;16112436;19;130444;-43
2023/03/05 04:06:42;;;;;;;0.82;0.30;;;;;;;18.56;30.31;101959.53;16111081;19;130889;-42
2023/03/05 04:12:04;;;;;;;0.20;0.20;;;;;;;18.54;29.99;101942.25;16116320;19;130534;-44
2023/03/05 04:17:26;;;;;;;0.55;0.30;;;;;;;18.53;29.89;101941.41;16114352;19;129755;-43
2023/03/05 04:22:48;;;;;;;2.60;0.30;;;;;;;18.53;30.25;101937.78;16111421;19;129992;-44
2023/03/05 04:28:10;;;;;;;0.55;0.20;;;;;;;18.52;30.38;101925.00;16111403;19;134594;-42
2023/03/05 04:33:32;;;;;;;0.40;0.20;;;;;;;18.49;30.33;101920.75;16116903;19;129743;-42
2023/03/05 04:38:54;;;;;;;0.40;0.10;;;;;;;18.48;30.44;101926.50;16119527;19;129827;-43
2023/03/05 04:44:16;;;;;;;0.50;0.20;;;;;;;18.46;30.11;101919.25;16114659;19;130463;-43
2023/03/05 04:49:38;;;;;;;1.02;0.50;;;;;;;18.45;30.13;101911.19;16111935;19;131380;-41
2023/03/05 04:55:00;;;;;;;0.40;0.20;;;;;;;18.43;30.07;101907.78;16108995;19;130501;-46
2023/03/05 05:00:22;;;;;;;0.82;0.25;;;;;;;18.43;30.50;101913.31;16107455;19;129922;-45
2023/03/05 05:05:44;;;;;;;0.35;0.10;;;;;;;18.41;30.25;101908.00;16107988;19;129908;-42
2023/03/05 05:11:07;;;;;;;1.30;0.35;;;;;;;18.39;30.39;101907.38;16111549;19;130571;-43
2023/03/05 05:16:29;;;;;;;0.13;0.13;;;;;;;18.39;30.25;101904.59;16110789;19;130919;-44
2023/03/05 05:21:51;;;;;;;0.75;0.30;;;;;;;18.36;30.33;101896.69;16112245;19;129281;-43
2023/03/05 05:27:13;;;;;;;0.65;0.20;;;;;;;18.35;30.62;101895.00;16106686;19;129830;-45
2023/03/05 05:32:35;;;;;;;0.65;0.30;;;;;;;18.35;30.53;101888.63;16103766;19;130826;-42
2023/03/05 05:37:57;;;;;;;0.25;0.20;;;;;;;18.33;30.56;101880.53;16105447;19;131189;-43
2023/03/05 05:43:19;;;;;;;0.35;0.20;;;;;;;18.30;30.53;101881.81;16104713;19;129701;-42
2023/03/05 05:48:42;;;;;;;0.20;0.13;;;;;;;18.29;30.41;101871.78;16109284;19;130205;-42
2023/03/05 05:54:04;;;;;;;0.22;0.10;;;;;;;18.28;30.73;101867.31;16106845;19;130921;-46
2023/03/05 05:59:26;;;;;;;0.30;0.13;;;;;;;18.28;30.49;101860.94;16105815;19;129757;-43
2023/03/05 06:04:48;;;;;;;0.30;0.20;;;;;;;18.25;30.63;101862.25;16108550;19;130577;-42
2023/03/05 06:10:10;;;;;;;0.52;0.30;;;;;;;18.25;30.54;101861.38;16125463;19;131608;-42
2023/03/05 06:15:32;;;;;;;0.77;0.30;;;;;;;18.22;30.48;101861.81;16120594;19;131815;-46
2023/03/05 06:20:56;;;;;;;0.20;0.10;;;;;;;18.22;30.83;101867.34;16123358;19;129672;-46
2023/03/05 06:26:20;;;;;;;0.20;0.13;;;;;;;18.20;30.48;101858.44;16118437;19;130209;-45
2023/03/05 06:31:42;;;;;;;0.57;0.20;;;;;;;18.20;30.44;101855.66;16122474;19;132078;-43
2023/03/05 06:37:04;;;;;;;0.40;0.30;;;;;;;18.19;30.75;101859.50;16123162;19;130693;-42
2023/03/05 06:42:26;;;;;;;0.52;0.30;;;;;;;18.21;30.59;101849.06;16117812;19;130313;-42
2023/03/05 06:47:48;;;;;;;0.32;0.10;;;;;;;18.35;30.61;101849.81;16122610;19;129529;-45
2023/03/05 06:53:10;;;;;;;6.53;0.50;;;;;;;18.64;30.86;101842.84;16123432;19;136372;-43
2023/03/05 06:58:31;;;;;;;4.60;0.45;;;;;;;19.05;30.30;101841.47;16118753;19;130207;-43
2023/03/05 07:03:57;;;;;;;5.72;0.40;;;;;;;19.59;30.00;101846.50;16122196;19;130291;-44
2023/03/05 07:09:19;;;;;;;2.13;0.30;;;;;;;20.10;29.13;101840.78;16119777;19;130278;-46
2023/03/05 07:14:41;;;;;;;2.90;0.30;;;;;;;20.38;28.95;101844.91;16120188;19;131321;-45
2023/03/05 07:20:03;;;;;;;2.28;0.50;;;;;;;20.48;28.64;101847.13;16119017;19;131266;-44
2023/03/05 07:25:25;;;;;;;0.30;0.20;;;;;;;20.43;28.87;101836.72;16119013;19;131492;-45
2023/03/05 07:30:58;;;;;;;1.98;0.30;;;;;;;20.37;29.07;101838.50;16120332;19;130513;-43
2023/03/05 07:36:20;;;;;;;4.47;0.47;;;;;;;20.23;28.72;101837.00;16116417;19;130778;-45
2023/03/05 07:41:42;;;;;;;7.60;0.65;;;;;;;20.08;29.17;101832.72;16113036;19;129397;-45
2023/03/05 07:47:04;;;;;;;5.10;0.60;;;;;;;19.95;28.85;101835.63;16117364;19;129851;-46
2023/03/05 07:52:26;;;;;;;6.88;0.57;;;;;;;19.83;29.31;101832.75;16113116;19;132365;-43
2023/03/05 07:57:48;;;;;;;6.63;0.80;;;;;;;19.70;29.45;101825.47;16118193;19;129824;-46
2023/03/05 08:03:10;;;;;;;2.90;0.65;;;;;;;19.58;29.48;101816.22;16115024;19;133750;-45
2023/03/05 08:08:32;;;;;;;5.05;0.60;;;;;;;19.47;29.87;101818.69;16111580;19;131792;-46
2023/03/05 08:13:54;;;;;;;5.05;0.50;;;;;;;19.38;29.75;101812.56;16118509;19;130834;-45
2023/03/05 08:19:15;;;;;;;5.70;0.60;;;;;;;19.30;29.92;101821.22;16109477;19;130430;-46
2023/03/05 08:24:37;;;;;;;2.65;0.45;;;;;;;19.28;30.09;101815.03;16107050;19;131656;-43
2023/03/05 08:30:01;;;;;;;2.75;0.43;;;;;;;19.37;30.12;101805.31;16112434;19;129809;-46
2023/03/05 08:35:23;;;;;;;4.75;0.50;;;;;;;19.67;29.94;101804.56;16115522;19;131157;-44
2023/03/05 08:40:45;;;;;;;3.38;0.50;;;;;;;20.12;29.06;101799.75;16113516;19;130167;-44
2023/03/05 08:46:07;;;;;;;4.32;0.30;;;;;;;20.56;28.83;101792.00;16113586;19;129538;-44
2023/03/05 08:51:29;;;;;;;3.05;0.50;;;;;;;20.98;28.31;101790.28;16113014;19;131159;-43
2023/03/05 08:56:51;;;;;;;2.10;0.50;;;;;;;21.34;28.11;101783.63;16111900;19;130596;-45
2023/03/05 09:06:04;;;;;;;4.68;0.93;;;;;;;21.66;27.61;101774.03;16179789;19;132604;-39
2023/03/05 09:11:25;;;;;;;9.32;0.95;;;;;;;21.75;27.75;101768.91;16193491;19;129768;-48
2023/03/05 09:16:47;;;;;;;4.53;0.75;;;;;;;21.73;27.48;101766.38;16193473;19;129470;-45
2023/03/05 09:22:09;;;;;;;3.47;0.60;;;;;;;21.67;27.73;101759.00;16194027;19;131113;-46
2023/03/05 09:27:34;;;;;;;3.78;0.45;;;;;;;21.57;27.88;101753.22;16191688;19;129440;-41
2023/03/05 09:32:56;;;;;;;3.20;0.80;;;;;;;21.46;28.28;101743.78;16194801;19;129728;-47
2023/03/05 09:38:19;;;;;;;7.20;1.08;;;;;;;21.34;28.18;101743.81;16196052;19;131215;-45
2023/03/05 09:43:59;;;;;;;3.35;0.80;;;;;;;21.19;28.36;101744.31;16197167;19;130534;-52
2023/03/05 09:49:26;;;;;;;8.30;1.40;;;;;;;21.07;28.42;101724.84;16194416;19;129715;-48
2023/03/05 09:54:54;;;;;;;5.55;0.68;;;;;;;20.95;28.73;101727.66;16197571;19;129599;-48
2023/03/05 10:00:34;;;;;;;4.65;0.60;;;;;;;20.86;28.64;101727.16;16193356;19;129613;-43
2023/03/05 10:06:11;;;;;;;2.67;0.75;;;;;;;20.78;28.88;101726.69;16193206;19;129450;-47
2023/03/05 10:11:40;;;;;;;2.70;0.82;;;;;;;20.70;29.02;101719.50;16192081;19;131071;-47
2023/03/05 10:17:32;;;;;;;7.78;1.15;;;;;;;20.63;28.98;101716.00;16127158;19;129639;-45
2023/03/05 10:23:15;;;;;;;5.65;0.60;;;;;;;20.50;29.30;101715.16;16129760;19;129621;-47
2023/03/05 10:28:43;;;;;;;6.47;0.95;;;;;;;20.41;29.41;101708.25;16124124;19;128969;-44
2023/03/05 10:34:21;;;;;;;6.68;1.10;;;;;;;20.37;29.53;101695.91;16126144;19;129499;-46
2023/03/05 10:39:49;;;;;;;9.68;1.30;;;;;;;20.32;29.71;101695.78;16122644;19;131018;-45
2023/03/05 10:45:13;;;;;;;17.00;1.30;;;;;;;20.31;29.61;101688.56;16123986;19;129566;-48
2023/03/05 10:50:39;;;;;;;16.40;1.73;;;;;;;20.25;30.17;101685.63;16119540;19;130762;-45
2023/03/05 10:56:03;;;;;;;14.45;1.23;;;;;;;20.21;30.01;101694.69;16092976;19;130529;-49
2023/03/05 11:01:28;;;;;;;20.73;1.98;;;;;;;20.16;30.35;101720.41;16106751;19;132070;-49
2023/03/05 11:06:50;;;;;;;9.80;0.90;;;;;;;20.08;29.92;101715.19;16117113;19;134104;-48
2023/03/05 11:12:25;;;;;;;12.60;1.20;;;;;;;20.03;29.85;101695.63;16118452;19;130419;-46
2023/03/05 11:18:04;;;;;;;9.50;1.05;;;;;;;19.97;30.00;101684.31;16125920;19;130478;-47
2023/03/05 11:23:26;;;;;;;10.73;0.95;;;;;;;19.92;29.99;101684.22;16122047;19;129405;-45
2023/03/05 11:28:51;;;;;;;6.72;1.23;;;;;;;19.88;30.15;101665.47;16120396;19;131042;-44
2023/03/05 11:34:18;;;;;;;5.97;1.20;;;;;;;19.86;30.46;101662.09;16122873;19;130619;-44
2023/03/05 11:39:40;;;;;;;12.88;1.23;;;;;;;19.82;30.62;101654.22;16116327;19;130727;-46
2023/03/05 11:45:04;;;;;;;4.78;0.70;;;;;;;19.81;30.71;101646.16;16118969;19;130016;-44
2023/03/05 11:50:30;;;;;;;8.00;1.20;;;;;;;19.80;30.78;101627.78;16118977;19;129423;-46
2023/03/05 11:55:56;;;;;;;5.05;0.85;;;;;;;19.80;30.41;101611.13;16121003;19;131222;-43
2023/03/05 12:01:22;;;;;;;6.78;0.70;;;;;;;19.79;30.71;101595.56;16121490;19;129511;-49
2023/03/05 12:07:01;;;;;;;6.63;0.65;;;;;;;19.78;30.73;101579.97;16117272;19;131158;-43
2023/03/05 12:12:41;;;;;;;8.60;0.80;;;;;;;19.75;30.50;101591.56;16115039;19;129943;-47
2023/03/05 12:18:14;;;;;;;2.17;0.40;;;;;;;19.66;30.71;101580.81;16113416;19;129949;-49
2023/03/05 12:23:54;;;;;;;1.85;0.50;;;;;;;19.66;31.04;101566.91;16114581;19;129748;-43
2023/03/05 12:29:42;;;;;;;8.32;0.77;;;;;;;19.66;30.83;101550.25;16115019;19;130698;-44
2023/03/05 12:35:22;;;;;;;3.10;1.00;;;;;;;19.64;30.83;101546.88;16116498;19;129530;-49
2023/03/05 12:40:44;;;;;;;5.68;0.77;;;;;;;19.63;31.05;101525.75;16116834;19;129648;-46
2023/03/05 12:46:24;;;;;;;3.10;0.60;;;;;;;19.63;30.88;101517.44;16107780;19;130078;-44
2023/03/05 12:51:50;;;;;;;3.67;0.40;;;;;;;19.60;31.10;101506.78;16113007;19;129936;-44
2023/03/05 12:57:20;;;;;;;2.75;0.63;;;;;;;19.56;31.00;101494.50;16114377;19;129517;-46
2023/03/05 13:02:44;;;;;;;2.40;0.45;;;;;;;19.77;30.74;101492.22;16110197;19;130075;-48
2023/03/05 13:08:19;;;;;;;3.63;0.50;;;;;;;20.27;30.67;101486.19;16115516;19;129709;-48
2023/03/05 13:13:43;;;;;;;9.38;0.80;;;;;;;20.75;29.69;101469.38;16113235;19;129730;-46
2023/03/05 13:19:15;;;;;;;5.50;0.73;;;;;;;21.03;28.55;101457.44;16115219;19;130590;-48
2023/03/05 13:24:36;;;;;;;7.13;0.95;;;;;;;21.19;28.51;101447.41;16109769;19;129690;-43
2023/03/05 13:29:58;;;;;;;5.63;0.68;;;;;;;21.25;28.21;101447.53;16106475;19;130308;-45
2023/03/05 13:35:20;;;;;;;3.38;0.70;;;;;;;21.19;28.36;101443.81;16104717;19;129060;-43
2023/03/05 13:40:42;;;;;;;4.55;0.80;;;;;;;21.11;28.61;101435.88;16110907;19;129640;-44
2023/03/05 13:46:04;;;;;;;2.95;0.50;;;;;;;20.99;28.48;101427.59;16110665;19;129843;-51
2023/03/05 13:51:43;;;;;;;7.70;0.70;;;;;;;20.89;28.43;101420.75;16115526;19;129766;-50
2023/03/05 13:57:07;;;;;;;1.42;0.45;;;;;;;20.76;28.92;101407.16;16123258;19;129348;-55
2023/03/05 14:02:29;;;;;;;3.28;0.63;;;;;;;20.61;29.12;101396.56;16125209;19;131322;-43
2023/03/05 14:07:55;;;;;;;8.03;0.67;;;;;;;20.50;28.84;101398.28;16128824;19;130199;-46
2023/03/05 14:13:23;;;;;;;2.13;0.40;;;;;;;20.41;29.36;101388.66;16125888;19;129560;-46
2023/03/05 14:18:56;;;;;;;3.92;0.43;;;;;;;20.40;29.35;101390.59;16121670;19;129841;-43
2023/03/05 14:24:25;;;;;;;3.40;0.43;;;;;;;20.61;29.62;101382.66;16127432;19;130663;-47
2023/03/05 14:29:47;;;;;;;2.97;0.65;;;;;;;20.98;29.36;101370.28;16128724;19;131123;-51
2023/03/05 14:35:17;;;;;;;1.33;0.40;;;;;;;21.33;29.42;101366.41;16128733;19;129505;-52
2023/03/05 14:40:39;;;;;;;6.80;0.43;;;;;;;21.61;28.86;101356.28;16131123;19;129373;-51
2023/03/05 14:46:01;;;;;;;2.30;0.32;;;;;;;21.86;28.88;101343.81;16131277;19;130141;-49
2023/03/05 14:51:24;;;;;;;1.85;0.47;;;;;;;22.01;28.78;101348.72;16132352;19;129281;-48
2023/03/05 14:56:46;;;;;;;1.20;0.47;;;;;;;22.08;28.70;101344.63;16137631;19;130233;-50
2023/03/05 15:02:14;;;;;;;1.60;0.47;;;;;;;22.14;28.28;101337.19;16138417;19;129875;-54
2023/03/05 15:07:36;;;;;;;4.80;0.70;;;;;;;22.19;28.40;101330.81;16137176;19;131029;-51
2023/03/05 15:12:58;;;;;;;7.25;0.73;;;;;;;22.25;28.45;101313.09;16137506;19;129041;-54
2023/03/05 15:18:21;;;;;;;4.53;0.70;;;;;;;22.24;28.38;101312.25;16136412;19;129829;-50
2023/03/05 15:23:44;;;;;;;5.05;0.60;;;;;;;22.15;28.10;101308.22;16117518;19;130287;-49
2023/03/05 15:29:08;;;;;;;7.35;0.93;;;;;;;22.04;28.54;101304.47;16122329;19;130426;-52
2023/03/05 15:34:32;;;;;;;9.77;0.98;;;;;;;21.95;28.48;101294.88;16121810;19;130697;-51
2023/03/05 15:39:54;;;;;;;10.90;0.95;;;;;;;21.83;28.69;101276.38;16121355;19;130046;-50
2023/03/05 15:45:16;;;;;;;14.63;0.75;;;;;;;21.75;28.84;101274.03;16118320;19;130511;-52
2023/03/05 15:50:39;;;;;;;5.70;0.70;;;;;;;21.63;28.92;101271.38;16117901;19;130086;-48
2023/03/05 15:56:04;;;;;;;13.77;0.88;;;;;;;21.52;28.75;101266.78;16119376;19;131269;-49
2023/03/05 16:01:26;;;;;;;16.75;1.05;;;;;;;21.42;29.30;101261.88;16120195;19;129751;-48
2023/03/05 16:06:49;;;;;;;20.27;1.08;;;;;;;21.33;29.28;101257.84;16125591;19;129364;-52
2023/03/05 16:12:16;;;;;;;17.02;1.40;;;;;;;21.28;29.22;101255.84;16111949;19;130150;-52
2023/03/05 16:17:41;;;;;;;8.00;0.70;;;;;;;21.21;29.06;101269.13;16116365;19;132596;-52
2023/03/05 16:23:05;;;;;;;9.38;0.65;;;;;;;21.10;28.77;101254.19;16115952;19;129691;-53
2023/03/05 16:28:26;;;;;;;11.50;1.10;;;;;;;21.00;29.09;101251.25;16116991;19;130939;-53
2023/03/05 16:33:48;;;;;;;10.98;1.70;;;;;;;20.89;29.23;101250.25;16110224;19;130632;-54
2023/03/05 16:39:10;;;;;;;13.38;1.33;;;;;;;20.83;29.06;101234.59;16112371;19;131005;-53
2023/03/05 16:44:32;;;;;;;20.40;1.50;;;;;;;20.75;29.08;101231.13;16113183;19;130557;-53
2023/03/05 16:49:54;;;;;;;14.57;1.92;;;;;;;20.68;29.39;101224.03;16111069;19;130476;-53
2023/03/05 16:55:16;;;;;;;19.35;1.30;;;;;;;20.59;29.18;101212.50;16100461;19;130310;-50
2023/03/05 17:00:37;;;;;;;11.85;1.10;;;;;;;20.48;29.48;101203.16;16106936;19;130397;-53
2023/03/05 17:05:59;;;;;;;18.25;2.28;;;;;;;20.41;29.14;101199.69;16108538;19;130900;-47
2023/03/05 17:11:21;;;;;;;11.20;1.65;;;;;;;20.33;29.20;101214.00;16111673;19;128946;-50
2023/03/05 17:16:44;;;;;;;11.85;1.27;;;;;;;20.22;29.10;101202.69;16107593;19;130218;-46
2023/03/05 17:22:06;;;;;;;9.65;1.40;;;;;;;20.28;29.33;101204.50;16109797;19;129798;-47
2023/03/05 17:27:28;;;;;;;8.50;1.33;;;;;;;20.51;29.10;101205.44;16122528;19;130386;-45
2023/03/05 17:32:52;;;;;;;6.22;0.93;;;;;;;20.86;28.41;101209.91;16126853;19;134842;-49
2023/03/05 17:38:14;;;;;;;6.37;1.00;;;;;;;21.15;27.84;101206.13;16125634;19;130720;-49
2023/03/05 17:43:36;;;;;;;7.68;1.00;;;;;;;21.27;28.07;101203.25;16126775;19;129681;-45
2023/03/05 17:48:58;;;;;;;5.03;0.85;;;;;;;21.28;27.67;101202.16;16125561;19;132118;-46
2023/03/05 17:54:20;;;;;;;6.18;0.85;;;;;;;21.22;27.79;101204.84;16126821;19;130316;-45
2023/03/05 17:59:41;;;;;;;7.57;1.25;;;;;;;21.12;27.63;101199.16;16123463;19;130271;-45
2023/03/05 18:05:05;;;;;;;6.15;0.82;;;;;;;21.01;27.63;101188.97;16125578;19;130257;-47
2023/03/05 18:10:28;;;;;;;3.42;0.75;;;;;;;20.90;28.00;101196.31;16125964;19;129813;-48
2023/03/05 18:15:50;;;;;;;8.75;0.90;;;;;;;20.80;27.82;101190.63;16121239;19;131064;-47
2023/03/05 18:21:16;;;;;;;3.00;1.00;;;;;;;20.69;28.15;101189.56;16125718;19;129527;-43
2023/03/05 18:26:38;;;;;;;4.40;0.70;;;;;;;20.58;28.11;101183.84;16120434;19;129671;-48
2023/03/05 18:32:00;;;;;;;4.57;0.70;;;;;;;20.49;28.59;101179.00;16114460;19;130389;-40
2023/03/05 18:37:22;;;;;;;14.15;1.40;;;;;;;20.38;28.82;101178.78;16108219;19;129698;-44
2023/03/05 18:42:43;;;;;;;17.40;1.42;;;;;;;20.33;28.72;101175.94;16109721;19;129747;-43
2023/03/05 18:48:06;;;;;;;5.05;1.10;;;;;;;20.29;29.22;101172.84;16116816;19;129702;-43
2023/03/05 18:53:28;;;;;;;10.73;1.67;;;;;;;20.27;29.46;101163.91;16119117;19;129630;-42
2023/03/05 18:58:50;;;;;;;12.98;1.27;;;;;;;20.26;29.67;101151.13;16117487;19;132805;-42
2023/03/05 19:04:12;;;;;;;10.60;1.65;;;;;;;20.32;29.92;101154.81;16116608;19;130353;-42
2023/03/05 19:10:01;;;;;;;13.07;1.20;;;;;;;20.58;29.83;101150.50;16118355;19;129611;-45
2023/03/05 19:15:23;;;;;;;8.20;1.30;;;;;;;20.93;29.75;101139.34;16114805;19;129552;-45
2023/03/05 19:20:52;;;;;;;6.32;1.38;;;;;;;21.30;29.80;101122.00;16120353;19;131015;-45
2023/03/05 19:26:13;;;;;;;7.32;1.75;;;;;;;21.68;29.53;101125.81;16121611;19;131308;-46
2023/03/05 19:31:36;;;;;;;16.70;1.80;;;;;;;21.99;29.45;101112.19;16120953;19;132084;-42
2023/03/05 19:36:58;;;;;;;14.85;1.80;;;;;;;22.16;28.86;101112.06;16121764;19;129507;-44
2023/03/05 19:42:20;;;;;;;8.60;1.38;;;;;;;22.19;29.07;101093.97;16120174;19;130651;-43
2023/03/05 19:47:42;;;;;;;6.82;1.30;;;;;;;22.16;29.02;101100.06;16111003;19;130589;-46
2023/03/05 19:53:03;;;;;;;17.77;1.45;;;;;;;22.08;29.46;101095.84;16121356;19;129921;-47
2023/03/05 19:58:25;;;;;;;6.78;1.40;;;;;;;21.96;29.87;101090.44;16120292;19;129413;-44
2023/03/05 20:03:52;;;;;;;5.97;1.52;;;;;;;21.83;29.86;101080.59;16119504;19;129958;-44
2023/03/05 20:09:15;;;;;;;4.45;0.93;;;;;;;21.67;29.76;101077.66;16118430;19;130042;-47
2023/03/05 20:14:37;;;;;;;19.60;1.85;;;;;;;21.54;29.84;101077.25;16118379;19;130024;-43
2023/03/05 20:19:59;;;;;;;8.25;1.35;;;;;;;21.39;29.99;101070.38;16121005;19;129979;-44
2023/03/05 20:25:23;;;;;;;13.38;1.25;;;;;;;21.34;30.36;101059.19;16115789;19;129046;-45
2023/03/05 20:30:45;;;;;;;6.13;1.30;;;;;;;21.47;30.37;101057.94;16114382;19;131451;-45
2023/03/05 20:36:07;;;;;;;11.23;1.23;;;;;;;21.80;30.33;101047.69;16117951;19;130189;-45
2023/03/05 20:41:30;;;;;;;11.88;1.35;;;;;;;22.25;29.73;101053.91;16115144;19;129594;-46
2023/03/05 20:47:45;;;;;;;9.50;1.48;;;;;;;22.68;29.50;101043.56;16116358;19;129563;-44
2023/03/05 20:53:08;;;;;;;13.82;1.67;;;;;;;23.03;28.98;101042.06;16106475;19;130940;-45
2023/03/05 20:58:29;;;;;;;20.25;1.73;;;;;;;23.26;28.94;101034.34;16104067;19;129875;-44
2023/03/05 21:03:52;;;;;;;14.90;1.48;;;;;;;23.47;28.49;101034.38;16107581;19;131354;-44
2023/03/05 21:09:14;;;;;;;8.05;1.30;;;;;;;23.61;28.90;101021.56;16107360;19;130672;-47
2023/03/05 21:14:36;;;;;;;7.18;1.20;;;;;;;23.58;28.65;101019.34;16102040;19;131114;-45
2023/03/05 21:19:59;;;;;;;9.55;1.40;;;;;;;23.48;28.87;101008.13;16106442;19;129708;-43
2023/03/05 21:25:28;;;;;;;16.33;1.80;;;;;;;23.37;29.18;101000.84;16103147;19;130701;-43
2023/03/05 21:30:53;;;;;;;17.25;2.25;;;;;;;23.22;29.46;100996.91;16113451;19;129722;-42
2023/03/05 21:36:17;;;;;;;21.45;2.28;;;;;;;23.03;29.16;101003.00;16108929;19;129846;-46
2023/03/05 21:41:39;;;;;;;20.38;2.63;;;;;;;22.84;29.34;100997.06;16107935;19;129740;-45
2023/03/05 21:47:01;;;;;;;16.25;2.17;;;;;;;22.65;29.32;100991.13;16108314;19;131021;-45
2023/03/05 21:52:23;;;;;;;20.70;1.67;;;;;;;22.44;29.52;100985.47;16105041;19;130634;-43
2023/03/05 21:57:45;;;;;;;18.40;1.85;;;;;;;22.27;29.49;100980.06;16086510;19;129852;-49
2023/03/05 22:03:07;;;;;;;11.07;1.70;;;;;;;22.09;30.03;100972.97;16102366;19;129657;-46
2023/03/05 22:08:29;;;;;;;15.73;1.52;;;;;;;21.92;29.95;100977.84;16099572;19;130613;-44
2023/03/05 22:13:50;;;;;;;7.95;1.63;;;;;;;21.79;29.88;100968.03;16124315;19;129761;-43
2023/03/05 22:19:12;;;;;;;7.30;1.50;;;;;;;21.65;30.10;100950.97;16123639;19;130167;-43
2023/03/05 22:24:34;;;;;;;14.07;1.40;;;;;;;21.50;29.96;100955.28;16124150;19;129546;-46
2023/03/05 22:29:56;;;;;;;4.53;1.20;;;;;;;21.40;30.07;100941.25;16124733;19;129814;-44
2023/03/05 22:35:18;;;;;;;10.80;1.30;;;;;;;21.30;30.29;100932.78;16121314;19;129549;-48
2023/03/05 22:40:42;;;;;;;11.80;1.20;;;;;;;21.20;30.16;100930.78;16124624;19;129331;-44
2023/03/05 22:46:25;;;;;;;5.10;1.00;;;;;;;21.11;30.51;100924.03;16123243;19;130290;-42
2023/03/05 22:51:47;;;;;;;3.58;1.10;;;;;;;21.00;30.69;100921.13;16122363;19;130650;-42
2023/03/05 22:57:08;;;;;;;4.03;1.20;;;;;;;20.89;30.63;100902.66;16118896;19;129793;-45
2023/03/05 23:02:30;;;;;;;3.67;0.90;;;;;;;20.81;30.70;100903.13;16121041;19;130303;-48
2023/03/05 23:07:52;;;;;;;3.20;1.00;;;;;;;20.72;30.35;100895.22;16119674;19;131576;-45
2023/03/05 23:13:14;;;;;;;3.53;0.80;;;;;;;20.65;30.79;100900.13;16114987;19;131570;-44
2023/03/05 23:18:35;;;;;;;5.10;1.13;;;;;;;20.59;30.87;100892.88;16116215;19;130636;-43
2023/03/05 23:23:57;;;;;;;5.63;1.00;;;;;;;20.51;30.76;100893.31;16114330;19;131267;-46
2023/03/05 23:30:16;;;;;;;3.35;0.55;;;;;;;20.44;31.14;100891.56;16116414;19;129611;-43
2023/03/05 23:35:40;;;;;;;2.22;0.80;;;;;;;20.35;31.16;100883.94;16102461;19;131369;-46
2023/03/05 23:41:06;;;;;;;3.95;0.90;;;;;;;20.32;30.78;100879.75;16112122;19;130619;-43
2023/03/05 23:46:27;;;;;;;1.30;0.70;;;;;;;20.25;31.08;100877.19;16102643;19;131247;-42
2023/03/05 23:51:49;;;;;;;2.53;0.80;;;;;;;20.22;31.03;100871.31;16106408;19;130227;-46
2023/03/05 23:57:11;;;;;;;1.95;0.70;;;;;;;20.17;31.27;100863.75;16107493;19;130980;-42
